Time;durP1;ratioP1;P1;durP2;ratioP2;P2;SDS_P1;SDS_P2;PMS_P1;PMS_P2;Temp;Humidity;BMP_temperature;BMP_pressure;BME280_temperature;BME280_humidity;BME280_pressure;Samples;Min_cycle;Max_cycle;Signal;HPM_P1;HPM_P2
2022/12/09 00:00:34;;;;;;;36.15;14.48;;;;;;;;;;5091791;28;20085;-60
2022/12/09 00:03:01;;;;;;;31.13;14.45;;;;;;;;;;5092498;28;20055;-60
2022/12/09 00:05:29;;;;;;;28.63;14.10;;;;;;;;;;5092887;28;20532;-60
2022/12/09 00:07:57;;;;;;;28.30;13.90;;;;;;;;;;5074706;28;20040;-60
2022/12/09 00:10:24;;;;;;;29.77;13.60;;;;;;;;;;5092783;28;20194;-60
2022/12/09 00:12:54;;;;;;;25.52;12.65;;;;;;;;;;5092902;28;20066;-60
2022/12/09 00:15:21;;;;;;;30.17;14.02;;;;;;;;;;5092794;28;20405;-60
2022/12/09 00:17:49;;;;;;;24.55;12.88;;;;;;;;;;5092319;28;20044;-60
2022/12/09 00:20:16;;;;;;;24.05;12.38;;;;;;;;;;5092721;28;20043;-60
2022/12/09 00:22:44;;;;;;;23.70;12.02;;;;;;;;;;5092620;28;20428;-60
2022/12/09 00:25:12;;;;;;;23.63;12.38;;;;;;;;;;5092569;28;20048;-60
2022/12/09 00:27:39;;;;;;;22.65;11.50;;;;;;;;;;5092893;28;20071;-60
2022/12/09 00:30:07;;;;;;;22.73;11.88;;;;;;;;;;5091308;28;20044;-60
2022/12/09 00:32:35;;;;;;;23.35;12.15;;;;;;;;;;5090989;28;20049;-60
2022/12/09 00:35:04;;;;;;;25.75;12.45;;;;;;;;;;5091110;28;20501;-59
2022/12/09 00:37:34;;;;;;;25.70;12.88;;;;;;;;;;5092249;28;20032;-60
2022/12/09 00:40:01;;;;;;;25.35;13.15;;;;;;;;;;5092491;28;20040;-59
2022/12/09 00:42:29;;;;;;;28.65;13.88;;;;;;;;;;5091048;28;20446;-59
2022/12/09 00:44:57;;;;;;;26.63;13.13;;;;;;;;;;5091029;28;20134;-59
2022/12/09 00:47:24;;;;;;;28.00;13.52;;;;;;;;;;5092144;28;20044;-59
2022/12/09 00:49:52;;;;;;;26.02;11.85;;;;;;;;;;5091090;28;20045;-60
2022/12/09 00:52:19;;;;;;;25.25;11.88;;;;;;;;;;5093934;28;20063;-60
2022/12/09 00:54:47;;;;;;;23.20;11.45;;;;;;;;;;5096407;28;20044;-60
2022/12/09 00:57:15;;;;;;;23.00;11.70;;;;;;;;;;5094986;28;20093;-60
2022/12/09 00:59:42;;;;;;;23.40;11.15;;;;;;;;;;5096213;28;20048;-60
2022/12/09 01:02:10;;;;;;;22.45;11.40;;;;;;;;;;5096026;28;20040;-60
2022/12/09 01:04:38;;;;;;;23.35;11.57;;;;;;;;;;5094881;28;20444;-60
2022/12/09 01:07:06;;;;;;;26.40;12.45;;;;;;;;;;5096200;28;20032;-60
2022/12/09 01:09:33;;;;;;;28.10;12.88;;;;;;;;;;5096038;28;20036;-60
2022/12/09 01:12:02;;;;;;;26.30;12.90;;;;;;;;;;5096174;28;20086;-60
2022/12/09 01:14:30;;;;;;;30.60;13.45;;;;;;;;;;5094880;28;20043;-60
2022/12/09 01:16:57;;;;;;;30.30;13.52;;;;;;;;;;5095760;28;20128;-60
2022/12/09 01:19:25;;;;;;;27.50;12.73;;;;;;;;;;5094207;28;20075;-60
2022/12/09 01:21:54;;;;;;;26.52;13.02;;;;;;;;;;5096066;28;20121;-60
2022/12/09 01:24:21;;;;;;;27.38;12.65;;;;;;;;;;5094436;28;20420;-59
2022/12/09 01:26:49;;;;;;;26.85;12.40;;;;;;;;;;5094514;28;20043;-60
2022/12/09 01:29:18;;;;;;;31.30;13.23;;;;;;;;;;5095673;28;20503;-60
2022/12/09 01:31:46;;;;;;;34.35;14.63;;;;;;;;;;5095551;28;20040;-60
2022/12/09 01:34:14;;;;;;;30.13;13.35;;;;;;;;;;5077418;28;20068;-60
2022/12/09 01:36:41;;;;;;;31.50;14.07;;;;;;;;;;5094115;28;20036;-60
2022/12/09 01:39:10;;;;;;;34.88;15.20;;;;;;;;;;5077309;28;20048;-60
2022/12/09 01:41:37;;;;;;;32.95;14.10;;;;;;;;;;5094052;28;20596;-60
2022/12/09 01:44:09;;;;;;;33.78;14.30;;;;;;;;;;5094262;28;20051;-60
2022/12/09 01:46:36;;;;;;;34.17;13.95;;;;;;;;;;5094005;28;20048;-60
2022/12/09 01:49:05;;;;;;;33.97;15.52;;;;;;;;;;5095139;28;20047;-60
2022/12/09 01:51:33;;;;;;;31.55;13.77;;;;;;;;;;5093882;28;20135;-60
2022/12/09 01:54:01;;;;;;;32.90;14.45;;;;;;;;;;5093711;28;20452;-60
2022/12/09 01:56:30;;;;;;;35.78;15.10;;;;;;;;;;5093745;28;20040;-59
2022/12/09 01:58:59;;;;;;;35.33;14.48;;;;;;;;;;5093618;28;20074;-60
2022/12/09 02:01:27;;;;;;;34.20;15.50;;;;;;;;;;5093750;28;20517;-60
2022/12/09 02:03:55;;;;;;;38.28;15.75;;;;;;;;;;5093367;28;20052;-60
2022/12/09 02:06:23;;;;;;;33.38;14.20;;;;;;;;;;5093584;28;20071;-60
2022/12/09 02:08:51;;;;;;;32.35;13.13;;;;;;;;;;5076918;28;20134;-60
2022/12/09 02:11:33;;;;;;;31.80;13.88;;;;;;;;;;5093481;28;20052;-60
2022/12/09 02:14:19;;;;;;;28.92;12.98;;;;;;;;;;5093539;28;20155;-60
2022/12/09 02:17:09;;;;;;;33.38;15.10;;;;;;;;;;5077127;28;20060;-59
2022/12/09 02:19:37;;;;;;;30.10;13.88;;;;;;;;;;5094806;28;20067;-60
2022/12/09 02:22:07;;;;;;;28.48;12.77;;;;;;;;;;5093347;28;20541;-60
2022/12/09 02:24:40;;;;;;;30.80;13.45;;;;;;;;;;5076536;28;20056;-60
2022/12/09 02:27:10;;;;;;;;;;;;;;;;;;5093558;28;20085;-60
2022/12/09 02:29:52;;;;;;;26.63;12.60;;;;;;;;;;5093142;28;19920;-60
2022/12/09 02:32:44;;;;;;;25.05;12.00;;;;;;;;;;5094199;28;20058;-60
2022/12/09 02:35:34;;;;;;;27.02;11.63;;;;;;;;;;5098763;28;20040;-59
2022/12/09 02:38:16;;;;;;;26.70;12.23;;;;;;;;;;5092928;28;20048;-60
2022/12/09 02:40:58;;;;;;;24.58;11.68;;;;;;;;;;5092915;28;20067;-59
2022/12/09 02:43:28;;;;;;;28.73;12.95;;;;;;;;;;5092890;28;20147;-60
2022/12/09 02:45:57;;;;;;;27.58;12.13;;;;;;;;;;5092802;28;20051;-60
2022/12/09 02:48:39;;;;;;;26.67;11.82;;;;;;;;;;5092818;28;20123;-59
2022/12/09 02:51:09;;;;;;;29.02;12.48;;;;;;;;;;5092793;28;20048;-60
2022/12/09 02:53:39;;;;;;;27.10;12.77;;;;;;;;;;5092584;28;20072;-60
2022/12/09 02:56:07;;;;;;;25.23;12.15;;;;;;;;;;5092872;28;20444;-60
2022/12/09 02:58:35;;;;;;;30.75;13.73;;;;;;;;;;5092546;28;20489;-60
2022/12/09 03:01:03;;;;;;;27.35;12.93;;;;;;;;;;5092441;28;20051;-60
2022/12/09 03:03:33;;;;;;;31.88;13.07;;;;;;;;;;5093826;28;20036;-59
2022/12/09 03:06:06;;;;;;;31.05;13.35;;;;;;;;;;5094005;28;20383;-60
2022/12/09 03:09:00;;;;;;;30.45;13.07;;;;;;;;;;5093675;28;20040;-60
2022/12/09 03:11:29;;;;;;;29.77;13.07;;;;;;;;;;5063582;28;20055;-59
2022/12/09 03:14:04;;;;;;;29.20;13.43;;;;;;;;;;5092834;28;20044;-60
2022/12/09 03:16:51;;;;;;;26.88;11.90;;;;;;;;;;5093553;28;20047;-60
2022/12/09 03:19:21;;;;;;;28.48;12.60;;;;;;;;;;5093526;28;20062;-60
2022/12/09 03:21:51;;;;;;;29.10;12.10;;;;;;;;;;5092303;28;20123;-60
2022/12/09 03:24:22;;;;;;;28.15;13.10;;;;;;;;;;5093429;28;20494;-60
2022/12/09 03:26:51;;;;;;;29.52;12.88;;;;;;;;;;5093265;28;20070;-59
2022/12/09 03:29:21;;;;;;;28.85;13.13;;;;;;;;;;5093461;28;20040;-60
2022/12/09 03:31:50;;;;;;;34.55;14.52;;;;;;;;;;5093683;28;20100;-60
2022/12/09 03:34:21;;;;;;;32.00;13.63;;;;;;;;;;5093161;28;20558;-60
2022/12/09 03:36:50;;;;;;;31.92;13.73;;;;;;;;;;5093648;28;20067;-60
2022/12/09 03:39:20;;;;;;;34.35;14.52;;;;;;;;;;5093281;28;20494;-60
2022/12/09 03:41:51;;;;;;;34.05;13.93;;;;;;;;;;5093179;28;20115;-60
2022/12/09 03:44:21;;;;;;;36.08;13.88;;;;;;;;;;5093159;28;20114;-60
2022/12/09 03:46:49;;;;;;;31.33;13.80;;;;;;;;;;5093221;28;20043;-60
2022/12/09 03:49:17;;;;;;;28.30;13.35;;;;;;;;;;5093111;28;20068;-59
2022/12/09 03:51:47;;;;;;;29.45;12.93;;;;;;;;;;5093044;28;20053;-59
2022/12/09 03:54:15;;;;;;;35.60;14.45;;;;;;;;;;5092984;28;20089;-59
2022/12/09 03:56:45;;;;;;;30.52;13.27;;;;;;;;;;5092829;28;20119;-59
2022/12/09 03:59:14;;;;;;;37.03;14.52;;;;;;;;;;5092843;28;20387;-59
2022/12/09 04:01:43;;;;;;;32.35;14.00;;;;;;;;;;5092775;28;20520;-59
2022/12/09 04:04:13;;;;;;;34.97;14.52;;;;;;;;;;5092833;28;20502;-59
2022/12/09 04:06:41;;;;;;;35.97;14.52;;;;;;;;;;5092718;28;20069;-59
2022/12/09 04:09:10;;;;;;;42.17;16.10;;;;;;;;;;5092742;28;20481;-59
2022/12/09 04:11:38;;;;;;;36.47;14.95;;;;;;;;;;5092730;28;20040;-61
2022/12/09 04:14:06;;;;;;;33.08;13.90;;;;;;;;;;5092613;28;20036;-60
2022/12/09 04:16:41;;;;;;;34.60;13.80;;;;;;;;;;5092630;28;20044;-61
2022/12/09 04:19:09;;;;;;;33.70;14.43;;;;;;;;;;5092708;28;20123;-61
2022/12/09 04:21:36;;;;;;;31.05;13.70;;;;;;;;;;5092611;28;20048;-58
2022/12/09 04:24:04;;;;;;;26.95;12.45;;;;;;;;;;5092493;28;20036;-58
2022/12/09 04:26:33;;;;;;;28.40;11.85;;;;;;;;;;5095577;28;20044;-59
2022/12/09 04:29:01;;;;;;;31.45;13.23;;;;;;;;;;5003238;28;20038;-59
2022/12/09 04:31:29;;;;;;;31.92;13.48;;;;;;;;;;4993717;28;20049;-60
2022/12/09 04:33:57;;;;;;;30.88;12.68;;;;;;;;;;4993741;28;20078;-60
2022/12/09 04:36:30;;;;;;;30.88;13.57;;;;;;;;;;4993569;28;20065;-60
2022/12/09 04:38:58;;;;;;;28.85;12.95;;;;;;;;;;4993874;28;20447;-60
2022/12/09 04:41:27;;;;;;;30.65;12.95;;;;;;;;;;4993425;28;20031;-60
2022/12/09 04:43:54;;;;;;;29.73;12.48;;;;;;;;;;4992434;28;20119;-60
2022/12/09 04:46:22;;;;;;;29.73;13.20;;;;;;;;;;4993269;28;20054;-60
2022/12/09 04:48:50;;;;;;;34.03;13.85;;;;;;;;;;4993742;28;20099;-60
2022/12/09 04:51:17;;;;;;;39.55;15.23;;;;;;;;;;5004977;28;20038;-60
2022/12/09 04:53:45;;;;;;;32.00;14.02;;;;;;;;;;4993100;28;20047;-60
2022/12/09 04:56:14;;;;;;;31.73;13.95;;;;;;;;;;4993436;28;20046;-60
2022/12/09 04:58:43;;;;;;;34.03;13.75;;;;;;;;;;4993270;28;20057;-60
2022/12/09 05:01:15;;;;;;;35.13;14.93;;;;;;;;;;4993222;28;20042;-60
2022/12/09 05:03:51;;;;;;;38.13;14.35;;;;;;;;;;4993183;28;20524;-60
2022/12/09 05:06:20;;;;;;;31.90;13.60;;;;;;;;;;4993141;28;20054;-60
2022/12/09 05:08:48;;;;;;;30.13;12.48;;;;;;;;;;4991852;28;20042;-60
2022/12/09 05:11:16;;;;;;;35.58;13.68;;;;;;;;;;4993130;28;20445;-60
2022/12/09 05:13:45;;;;;;;32.83;12.75;;;;;;;;;;4991682;28;20045;-60
2022/12/09 05:16:13;;;;;;;31.67;12.85;;;;;;;;;;4992997;28;20129;-60
2022/12/09 05:18:44;;;;;;;29.55;11.48;;;;;;;;;;4992889;28;20066;-60
2022/12/09 05:21:13;;;;;;;32.92;12.57;;;;;;;;;;4992867;28;20125;-59
2022/12/09 05:23:42;;;;;;;32.92;12.65;;;;;;;;;;4992849;28;20035;-60
2022/12/09 05:26:11;;;;;;;26.88;11.93;;;;;;;;;;4992582;28;20089;-60
2022/12/09 05:28:39;;;;;;;29.65;11.27;;;;;;;;;;4992687;28;20389;-60
2022/12/09 05:31:09;;;;;;;28.40;11.70;;;;;;;;;;4991014;28;20080;-60
2022/12/09 05:33:37;;;;;;;26.60;11.20;;;;;;;;;;4990098;28;20487;-60
2022/12/09 05:36:10;;;;;;;27.50;11.45;;;;;;;;;;4992436;28;20057;-60
2022/12/09 05:38:38;;;;;;;26.15;10.95;;;;;;;;;;4991552;28;20558;-59
2022/12/09 05:41:06;;;;;;;27.38;10.77;;;;;;;;;;4992505;28;20137;-60
2022/12/09 05:43:35;;;;;;;24.90;11.07;;;;;;;;;;4993500;28;20039;-60
2022/12/09 05:46:05;;;;;;;19.52;8.52;;;;;;;;;;4992192;28;20325;-60
2022/12/09 05:48:33;;;;;;;19.75;8.70;;;;;;;;;;4990739;28;20559;-60
2022/12/09 05:51:03;;;;;;;18.10;8.32;;;;;;;;;;4991409;28;20083;-60
2022/12/09 05:53:31;;;;;;;20.80;9.57;;;;;;;;;;4992260;28;20496;-60
2022/12/09 05:55:59;;;;;;;24.80;11.27;;;;;;;;;;4992793;28;20047;-60
2022/12/09 05:58:27;;;;;;;25.23;11.02;;;;;;;;;;4992512;28;20049;-60
2022/12/09 06:00:56;;;;;;;23.85;10.40;;;;;;;;;;4992703;28;20054;-60
2022/12/09 06:03:24;;;;;;;21.73;9.00;;;;;;;;;;4992431;28;20438;-60
2022/12/09 06:05:52;;;;;;;25.30;10.35;;;;;;;;;;4992272;28;20099;-60
2022/12/09 06:08:20;;;;;;;23.80;10.32;;;;;;;;;;4992715;28;20164;-60
2022/12/09 06:10:48;;;;;;;29.25;11.45;;;;;;;;;;4992479;28;20050;-60
2022/12/09 06:13:16;;;;;;;25.42;10.13;;;;;;;;;;4992318;28;20099;-59
2022/12/09 06:15:44;;;;;;;29.27;11.18;;;;;;;;;;4992523;28;20055;-60
2022/12/09 06:18:11;;;;;;;31.13;11.68;;;;;;;;;;4992430;28;20073;-60
2022/12/09 06:20:40;;;;;;;31.63;11.57;;;;;;;;;;4992216;28;20054;-60
2022/12/09 06:23:08;;;;;;;32.13;12.40;;;;;;;;;;4991052;28;20038;-60
2022/12/09 06:25:35;;;;;;;32.97;11.52;;;;;;;;;;4992217;28;20058;-60
2022/12/09 06:28:04;;;;;;;28.25;11.60;;;;;;;;;;4992141;28;20444;-59
2022/12/09 06:30:31;;;;;;;34.22;12.85;;;;;;;;;;4992048;28;20049;-60
2022/12/09 06:32:59;;;;;;;37.65;13.45;;;;;;;;;;4990782;28;20046;-60
2022/12/09 06:35:27;;;;;;;36.15;13.05;;;;;;;;;;4990396;28;20047;-60
2022/12/09 06:37:55;;;;;;;35.15;14.25;;;;;;;;;;4990594;28;20096;-60
2022/12/09 06:40:23;;;;;;;33.08;13.25;;;;;;;;;;4991897;28;20498;-60
2022/12/09 06:42:51;;;;;;;32.72;13.85;;;;;;;;;;4991795;28;20046;-60
2022/12/09 06:45:19;;;;;;;32.38;14.48;;;;;;;;;;4991734;28;20042;-60
2022/12/09 06:47:47;;;;;;;29.15;12.45;;;;;;;;;;4991922;28;20484;-60
2022/12/09 06:50:15;;;;;;;31.13;13.20;;;;;;;;;;4990581;28;20535;-60
2022/12/09 06:52:43;;;;;;;30.35;12.98;;;;;;;;;;4991652;28;20496;-60
2022/12/09 06:55:11;;;;;;;30.90;13.95;;;;;;;;;;4991634;28;20187;-60
2022/12/09 06:57:40;;;;;;;31.20;14.05;;;;;;;;;;4991696;28;20125;-60
2022/12/09 07:00:08;;;;;;;32.83;14.98;;;;;;;;;;4991460;28;20047;-60
2022/12/09 07:02:36;;;;;;;33.33;15.13;;;;;;;;;;4991508;28;20069;-60
2022/12/09 07:05:04;;;;;;;37.20;15.43;;;;;;;;;;4990563;28;20137;-60
2022/12/09 07:07:33;;;;;;;31.48;13.38;;;;;;;;;;4991436;28;20507;-60
2022/12/09 07:10:02;;;;;;;32.50;13.23;;;;;;;;;;4991391;28;20046;-60
2022/12/09 07:12:30;;;;;;;35.15;14.07;;;;;;;;;;4991457;28;20077;-60
2022/12/09 07:14:58;;;;;;;39.35;14.35;;;;;;;;;;4991240;28;20407;-60
2022/12/09 07:17:26;;;;;;;35.42;14.30;;;;;;;;;;4991220;28;20073;-60
2022/12/09 07:19:54;;;;;;;43.20;16.88;;;;;;;;;;4991202;28;20038;-60
2022/12/09 07:22:24;;;;;;;45.05;16.88;;;;;;;;;;4991448;28;20039;-59
2022/12/09 07:24:51;;;;;;;40.72;17.10;;;;;;;;;;4991071;28;20051;-60
2022/12/09 07:27:19;;;;;;;39.47;17.33;;;;;;;;;;4991153;28;20410;-60
2022/12/09 07:29:46;;;;;;;42.33;17.42;;;;;;;;;;4991156;28;20088;-60
2022/12/09 07:32:14;;;;;;;41.05;17.35;;;;;;;;;;4991083;28;20050;-60
2022/12/09 07:34:42;;;;;;;43.45;17.17;;;;;;;;;;4990942;28;20403;-60
2022/12/09 07:37:09;;;;;;;44.08;17.38;;;;;;;;;;4991047;28;20041;-60
2022/12/09 07:39:37;;;;;;;39.65;16.45;;;;;;;;;;4990931;28;20092;-60
2022/12/09 07:42:05;;;;;;;41.35;17.23;;;;;;;;;;4990882;28;20046;-60
2022/12/09 07:44:44;;;;;;;48.70;19.17;;;;;;;;;;4989479;28;20057;-59
2022/12/09 07:47:12;;;;;;;45.05;18.05;;;;;;;;;;4991081;28;20092;-60
2022/12/09 07:49:40;;;;;;;46.92;18.23;;;;;;;;;;4991207;28;20042;-59
2022/12/09 07:52:08;;;;;;;38.28;15.85;;;;;;;;;;4990726;28;20104;-60
2022/12/09 07:54:36;;;;;;;33.05;14.57;;;;;;;;;;4990630;28;20043;-60
2022/12/09 07:57:03;;;;;;;33.90;14.23;;;;;;;;;;4990777;28;20054;-59
2022/12/09 07:59:31;;;;;;;30.65;11.88;;;;;;;;;;4990472;28;20377;-60
2022/12/09 08:01:58;;;;;;;30.00;13.48;;;;;;;;;;4990478;28;20060;-59
2022/12/09 08:04:34;;;;;;;25.42;11.68;;;;;;;;;;4990615;28;20046;-59
2022/12/09 08:07:02;;;;;;;27.23;10.73;;;;;;;;;;4990663;28;20042;-59
2022/12/09 08:09:30;;;;;;;24.13;10.48;;;;;;;;;;4990509;28;20054;-59
2022/12/09 08:11:58;;;;;;;23.98;11.32;;;;;;;;;;4990475;28;20515;-59
2022/12/09 08:14:26;;;;;;;29.60;12.35;;;;;;;;;;4989174;28;20042;-59
2022/12/09 08:16:54;;;;;;;26.52;11.10;;;;;;;;;;4990599;28;20062;-59
2022/12/09 08:19:21;;;;;;;23.05;10.52;;;;;;;;;;4990401;28;20065;-59
2022/12/09 08:21:49;;;;;;;23.48;11.30;;;;;;;;;;4990536;28;20401;-59
2022/12/09 08:24:21;;;;;;;25.05;11.07;;;;;;;;;;4990212;28;20050;-60
2022/12/09 08:26:49;;;;;;;24.63;11.15;;;;;;;;;;4990486;28;20373;-59
2022/12/09 08:29:18;;;;;;;22.38;9.82;;;;;;;;;;4990255;28;20054;-59
2022/12/09 08:31:46;;;;;;;19.23;9.75;;;;;;;;;;4990302;28;20487;-59
2022/12/09 08:34:14;;;;;;;17.85;9.40;;;;;;;;;;4990226;28;20034;-60
2022/12/09 08:36:42;;;;;;;17.55;8.73;;;;;;;;;;4990198;28;20050;-60
2022/12/09 08:39:11;;;;;;;20.65;8.60;;;;;;;;;;4990233;28;20496;-60
2022/12/09 08:41:39;;;;;;;17.50;8.90;;;;;;;;;;4990205;28;20134;-60
2022/12/09 08:44:11;;;;;;;18.77;9.25;;;;;;;;;;4989992;28;20492;-60
2022/12/09 08:46:42;;;;;;;22.25;10.55;;;;;;;;;;4990121;28;20038;-60
2022/12/09 08:49:11;;;;;;;20.45;9.70;;;;;;;;;;4990011;28;20035;-60
2022/12/09 08:51:39;;;;;;;24.15;11.20;;;;;;;;;;4973135;28;20070;-60
2022/12/09 08:54:07;;;;;;;23.27;11.90;;;;;;;;;;4988851;28;20038;-60
2022/12/09 08:56:35;;;;;;;26.58;12.77;;;;;;;;;;4990127;28;20100;-59
2022/12/09 08:59:04;;;;;;;22.30;11.60;;;;;;;;;;4990024;28;20052;-60
2022/12/09 09:01:33;;;;;;;25.40;11.40;;;;;;;;;;4989922;28;20412;-60
2022/12/09 09:04:05;;;;;;;24.60;12.13;;;;;;;;;;4989871;28;20430;-60
2022/12/09 09:06:34;;;;;;;23.30;11.23;;;;;;;;;;4989920;28;20057;-60
2022/12/09 09:09:02;;;;;;;21.35;11.13;;;;;;;;;;4989940;28;20682;-60
2022/12/09 09:11:31;;;;;;;24.77;12.27;;;;;;;;;;4990064;28;20042;-59
2022/12/09 09:13:58;;;;;;;22.38;11.07;;;;;;;;;;4992985;28;20038;-60
2022/12/09 09:16:27;;;;;;;24.88;12.60;;;;;;;;;;4993058;28;20041;-60
2022/12/09 09:18:54;;;;;;;28.50;14.20;;;;;;;;;;4993301;28;20508;-60
2022/12/09 09:21:25;;;;;;;26.50;14.18;;;;;;;;;;4993156;28;20100;-60
2022/12/09 09:23:53;;;;;;;27.13;15.48;;;;;;;;;;4993058;28;20042;-60
2022/12/09 09:26:22;;;;;;;29.05;16.23;;;;;;;;;;4992849;28;20058;-59
2022/12/09 09:28:50;;;;;;;35.78;16.33;;;;;;;;;;4992965;28;20121;-60
2022/12/09 09:31:19;;;;;;;33.90;16.92;;;;;;;;;;4992989;28;20133;-60
2022/12/09 09:33:48;;;;;;;33.15;17.20;;;;;;;;;;4993135;28;20066;-59
2022/12/09 09:36:21;;;;;;;35.85;19.30;;;;;;;;;;4992884;28;20492;-59
2022/12/09 09:38:49;;;;;;;35.40;17.17;;;;;;;;;;4992796;28;20546;-60
2022/12/09 09:41:37;;;;;;;31.20;15.80;;;;;;;;;;4992860;28;20396;-60
2022/12/09 09:44:09;;;;;;;32.33;17.13;;;;;;;;;;4991383;28;20050;-60
2022/12/09 09:46:38;;;;;;;35.17;17.20;;;;;;;;;;4993013;28;20065;-60
2022/12/09 09:49:12;;;;;;;35.38;16.42;;;;;;;;;;4992755;28;20042;-60
2022/12/09 09:51:39;;;;;;;31.80;16.55;;;;;;;;;;4992726;28;20049;-60
2022/12/09 09:54:09;;;;;;;27.77;14.73;;;;;;;;;;4993022;28;20450;-59
2022/12/09 09:56:58;;;;;;;25.42;14.40;;;;;;;;;;4992554;28;20046;-59
2022/12/09 09:59:42;;;;;;;26.50;13.60;;;;;;;;;;4992387;28;20072;-59
2022/12/09 10:02:11;;;;;;;36.33;19.58;;;;;;;;;;4991329;28;20373;-60
2022/12/09 10:05:08;;;;;;;27.27;12.95;;;;;;;;;;4992670;28;20342;-59
2022/12/09 10:07:41;;;;;;;27.15;12.77;;;;;;;;;;4996166;28;20100;-60
2022/12/09 10:10:20;;;;;;;23.27;12.68;;;;;;;;;;4992543;28;20050;-60
2022/12/09 10:13:03;;;;;;;22.38;12.10;;;;;;;;;;4992277;28;20042;-60
2022/12/09 10:15:43;;;;;;;23.30;11.20;;;;;;;;;;4990932;28;20050;-60
2022/12/09 10:18:27;;;;;;;23.13;12.18;;;;;;;;;;4992112;28;20511;-60
2022/12/09 10:20:56;;;;;;;28.27;12.88;;;;;;;;;;4991920;28;20057;-60
2022/12/09 10:23:24;;;;;;;26.83;12.68;;;;;;;;;;4990793;28;20034;-60
2022/12/09 10:25:57;;;;;;;24.48;13.18;;;;;;;;;;4992124;28;20050;-60
2022/12/09 10:28:28;;;;;;;30.70;16.35;;;;;;;;;;4992383;28;20400;-60
2022/12/09 10:30:56;;;;;;;23.95;12.00;;;;;;;;;;4991932;28;20042;-59
2022/12/09 10:33:28;;;;;;;24.10;12.50;;;;;;;;;;4992170;28;20046;-59
2022/12/09 10:35:57;;;;;;;23.75;12.18;;;;;;;;;;4991840;28;20111;-59
2022/12/09 10:38:27;;;;;;;21.75;11.98;;;;;;;;;;4991946;28;20111;-60
2022/12/09 10:41:09;;;;;;;23.70;12.15;;;;;;;;;;4991891;28;20043;-60
2022/12/09 10:43:40;;;;;;;23.10;11.75;;;;;;;;;;4991848;28;20041;-60
2022/12/09 10:46:17;;;;;;;20.80;12.00;;;;;;;;;;4991806;28;20125;-59
2022/12/09 10:48:49;;;;;;;24.65;12.40;;;;;;;;;;4991688;28;20103;-60
2022/12/09 10:51:27;;;;;;;18.70;11.23;;;;;;;;;;4991823;28;20046;-60
2022/12/09 10:54:05;;;;;;;21.50;12.02;;;;;;;;;;4991709;28;20038;-60
2022/12/09 10:56:36;;;;;;;23.27;11.60;;;;;;;;;;4991945;28;20444;-60
2022/12/09 10:59:10;;;;;;;26.95;13.15;;;;;;;;;;4991536;28;20149;-60
2022/12/09 11:01:47;;;;;;;25.23;13.23;;;;;;;;;;4991690;28;20042;-59
2022/12/09 11:04:21;;;;;;;28.48;13.65;;;;;;;;;;4991447;28;20068;-60
2022/12/09 11:06:49;;;;;;;23.02;13.15;;;;;;;;;;4991719;28;20391;-60
2022/12/09 11:09:30;;;;;;;22.73;12.90;;;;;;;;;;4990255;28;20050;-59
2022/12/09 11:11:59;;;;;;;26.88;13.43;;;;;;;;;;4991551;28;20391;-60
2022/12/09 11:14:33;;;;;;;25.85;14.75;;;;;;;;;;4991632;28;20446;-60
2022/12/09 11:17:10;;;;;;;25.27;14.90;;;;;;;;;;4991327;28;20508;-60
2022/12/09 11:19:38;;;;;;;28.48;15.25;;;;;;;;;;4991202;28;20407;-60
2022/12/09 11:22:14;;;;;;;24.77;13.43;;;;;;;;;;4991252;28;20052;-60
2022/12/09 11:24:42;;;;;;;24.30;13.82;;;;;;;;;;4991071;28;20111;-60
2022/12/09 11:27:29;;;;;;;23.77;12.88;;;;;;;;;;4991254;28;20073;-60
2022/12/09 11:30:14;;;;;;;28.50;14.45;;;;;;;;;;4991289;28;20057;-60
2022/12/09 11:32:59;;;;;;;26.42;15.60;;;;;;;;;;4991227;28;20046;-60
2022/12/09 11:35:39;;;;;;;31.23;17.10;;;;;;;;;;4990475;28;20598;-60
2022/12/09 11:38:22;;;;;;;30.98;16.65;;;;;;;;;;4991271;28;20395;-60
2022/12/09 11:41:01;;;;;;;30.70;16.75;;;;;;;;;;4989970;28;20095;-60
2022/12/09 11:43:40;;;;;;;28.63;16.95;;;;;;;;;;4990931;28;20480;-60
2022/12/09 11:46:13;;;;;;;29.98;15.90;;;;;;;;;;4989678;28;20503;-60
2022/12/09 11:48:42;;;;;;;35.83;16.25;;;;;;;;;;4990848;28;20323;-60
2022/12/09 11:51:21;;;;;;;30.63;15.82;;;;;;;;;;4991051;28;20440;-60
2022/12/09 11:53:51;;;;;;;29.15;15.65;;;;;;;;;;4990742;28;20038;-60
2022/12/09 11:56:24;;;;;;;33.65;17.50;;;;;;;;;;4990427;28;20051;-59
2022/12/09 11:58:52;;;;;;;35.95;18.45;;;;;;;;;;4990393;28;20064;-60
2022/12/09 12:01:32;;;;;;;33.05;17.83;;;;;;;;;;4990584;28;20564;-60
2022/12/09 12:04:00;;;;;;;35.50;19.40;;;;;;;;;;4990425;28;20479;-60
2022/12/09 12:06:39;;;;;;;36.50;18.50;;;;;;;;;;4990546;28;20053;-60
2022/12/09 12:09:27;;;;;;;36.50;19.45;;;;;;;;;;4989177;28;20038;-60
2022/12/09 12:12:19;;;;;;;41.47;21.67;;;;;;;;;;4993090;28;20492;-60
2022/12/09 12:14:46;;;;;;;37.17;20.08;;;;;;;;;;4989126;28;20052;-60
2022/12/09 12:17:19;;;;;;;39.65;20.17;;;;;;;;;;4990277;28;20069;-60
2022/12/09 12:19:49;;;;;;;35.60;19.70;;;;;;;;;;4988954;28;20503;-60
2022/12/09 12:22:35;;;;;;;37.80;19.38;;;;;;;;;;4990188;28;20053;-60
2022/12/09 12:25:06;;;;;;;34.35;17.73;;;;;;;;;;4990277;28;20441;-60
2022/12/09 12:27:51;;;;;;;36.47;18.40;;;;;;;;;;4990318;28;20056;-60
2022/12/09 12:30:22;;;;;;;38.08;18.58;;;;;;;;;;4990311;28;20034;-60
2022/12/09 12:32:53;;;;;;;43.08;21.58;;;;;;;;;;4990476;28;20068;-61
2022/12/09 12:35:50;;;;;;;45.75;20.85;;;;;;;;;;4990131;28;20038;-60
2022/12/09 12:38:36;;;;;;;47.05;25.75;;;;;;;;;;4990135;28;20411;-60
2022/12/09 12:41:03;;;;;;;42.85;23.02;;;;;;;;;;4990139;28;20050;-60
2022/12/09 12:47:01;;;;;;;43.80;21.98;;;;;;;;;;4990051;28;20046;-60
2022/12/09 12:49:41;;;;;;;40.15;22.30;;;;;;;;;;5004300;28;20116;-60
2022/12/09 12:52:16;;;;;;;41.05;21.80;;;;;;;;;;4992055;28;20042;-60
2022/12/09 12:55:16;;;;;;;38.05;21.25;;;;;;;;;;4993300;28;20046;-60
2022/12/09 12:57:50;;;;;;;39.72;21.00;;;;;;;;;;4993283;28;20050;-60
2022/12/09 13:00:22;;;;;;;41.70;21.05;;;;;;;;;;4993266;28;20121;-60
2022/12/09 13:03:06;;;;;;;41.35;21.02;;;;;;;;;;4993493;28;20121;-60
2022/12/09 13:05:37;;;;;;;42.78;21.58;;;;;;;;;;4993279;28;20092;-60
2022/12/09 13:08:06;;;;;;;40.13;21.20;;;;;;;;;;4993213;28;20088;-60
2022/12/09 13:10:38;;;;;;;40.85;19.90;;;;;;;;;;4993105;28;20047;-60
2022/12/09 13:13:10;;;;;;;41.22;19.63;;;;;;;;;;4993125;28;20038;-60
2022/12/09 13:15:46;;;;;;;35.20;17.73;;;;;;;;;;4993153;28;20039;-60
2022/12/09 13:18:31;;;;;;;36.58;19.00;;;;;;;;;;4993016;28;20050;-60
2022/12/09 13:20:59;;;;;;;39.03;20.27;;;;;;;;;;4993081;28;20038;-60
2022/12/09 13:23:42;;;;;;;41.25;21.63;;;;;;;;;;4991809;28;20366;-60
2022/12/09 13:26:25;;;;;;;39.75;20.35;;;;;;;;;;4992909;28;20057;-61
2022/12/09 13:29:22;;;;;;;34.72;18.83;;;;;;;;;;4993036;28;20066;-60
2022/12/09 13:32:06;;;;;;;43.17;20.45;;;;;;;;;;5010691;28;20496;-61
2022/12/09 13:34:37;;;;;;;42.50;19.23;;;;;;;;;;4992972;28;20042;-60
2022/12/09 13:37:04;;;;;;;38.70;18.95;;;;;;;;;;4993073;28;20121;-60
2022/12/09 13:39:41;;;;;;;41.10;18.65;;;;;;;;;;4991607;28;20481;-60
2022/12/09 13:42:54;;;;;;;39.20;17.77;;;;;;;;;;4992709;28;20434;-60
2022/12/09 13:45:33;;;;;;;42.20;19.98;;;;;;;;;;4993589;28;20097;-61
2022/12/09 13:48:26;;;;;;;43.08;20.75;;;;;;;;;;4992835;28;20074;-60
2022/12/09 13:50:59;;;;;;;49.80;23.50;;;;;;;;;;4991356;28;20048;-60
2022/12/09 13:53:32;;;;;;;41.10;20.02;;;;;;;;;;4992652;28;20042;-60
2022/12/09 13:56:02;;;;;;;39.45;20.05;;;;;;;;;;4991327;28;20095;-60
2022/12/09 13:58:29;;;;;;;45.50;20.67;;;;;;;;;;4992446;28;20043;-60
2022/12/09 14:01:04;;;;;;;48.33;21.98;;;;;;;;;;4992511;28;20043;-60
2022/12/09 14:03:37;;;;;;;49.00;22.92;;;;;;;;;;4992538;28;20046;-60
2022/12/09 14:06:17;;;;;;;52.22;23.63;;;;;;;;;;4992524;28;20072;-60
2022/12/09 14:08:47;;;;;;;48.90;23.30;;;;;;;;;;4991357;28;20369;-60
2022/12/09 14:11:33;;;;;;;48.83;21.15;;;;;;;;;;4992385;28;20038;-60
2022/12/09 14:14:24;;;;;;;50.53;22.50;;;;;;;;;;4992248;28;20422;-60
2022/12/09 14:16:54;;;;;;;57.15;24.83;;;;;;;;;;5001429;28;20058;-60
2022/12/09 14:19:25;;;;;;;55.08;25.25;;;;;;;;;;4992259;28;20042;-60
2022/12/09 14:22:15;;;;;;;47.80;21.20;;;;;;;;;;4990554;28;20431;-60
2022/12/09 14:24:50;;;;;;;50.83;23.85;;;;;;;;;;4990496;28;20054;-59
2022/12/09 14:27:22;;;;;;;42.33;20.85;;;;;;;;;;4992074;28;20129;-59
2022/12/09 14:29:52;;;;;;;41.50;21.58;;;;;;;;;;4994583;28;20046;-60
2022/12/09 14:32:21;;;;;;;53.47;26.25;;;;;;;;;;5000938;28;20038;-60
2022/12/09 14:35:00;;;;;;;52.63;24.55;;;;;;;;;;4991907;28;20050;-61
2022/12/09 14:37:47;;;;;;;51.63;22.13;;;;;;;;;;4991473;28;20457;-62
2022/12/09 14:40:15;;;;;;;71.65;35.97;;;;;;;;;;5001222;28;20058;-61
2022/12/09 14:42:49;;;;;;;58.05;30.20;;;;;;;;;;4991954;28;20095;-62
2022/12/09 14:45:20;;;;;;;60.38;26.75;;;;;;;;;;4990255;28;20506;-61
2022/12/09 14:47:47;;;;;;;71.68;31.45;;;;;;;;;;4990456;28;20560;-62